Time;durP1;ratioP1;P1;durP2;ratioP2;P2;SDS_P1;SDS_P2;PMS_P1;PMS_P2;Temp;Humidity;BMP_temperature;BMP_pressure;BME280_temperature;BME280_humidity;BME280_pressure;Samples;Min_cycle;Max_cycle;Signal;HPM_P1;HPM_P2
2021/05/24 00:02:13;;;;;;;2.15;2.05;;;;;;;11.63;85.18;94518.91;1724676;82;21130;-50
2021/05/24 00:04:40;;;;;;;2.72;2.52;;;;;;;11.60;85.07;94515.70;1718552;82;21100;-50
2021/05/24 00:07:07;;;;;;;2.10;2.00;;;;;;;11.57;85.17;94528.39;1731318;82;21095;-49
2021/05/24 00:09:35;;;;;;;1.80;1.70;;;;;;;11.56;85.48;94521.98;1730925;82;21657;-51
2021/05/24 00:12:04;;;;;;;2.80;2.25;;;;;;;11.59;85.36;94530.10;1728474;82;21740;-49
2021/05/24 00:14:33;;;;;;;2.47;2.27;;;;;;;11.60;85.34;94526.72;1720407;82;21183;-50
2021/05/24 00:17:01;;;;;;;6.95;2.20;;;;;;;11.54;85.59;94527.91;1716006;82;21666;-51
2021/05/24 00:19:28;;;;;;;2.27;2.02;;;;;;;11.54;85.86;94540.93;1701729;82;21266;-50
2021/05/24 00:21:55;;;;;;;3.58;2.50;;;;;;;11.55;85.95;94545.97;1719654;82;21049;-49
2021/05/24 00:24:22;;;;;;;3.10;2.87;;;;;;;11.57;85.86;94549.69;1722660;82;21092;-49
2021/05/24 00:26:50;;;;;;;4.78;3.72;;;;;;;11.54;85.75;94551.33;1723197;82;21433;-49
2021/05/24 00:29:20;;;;;;;4.75;3.40;;;;;;;11.55;86.18;94558.99;1720029;82;21572;-49
2021/05/24 00:31:48;;;;;;;5.30;4.80;;;;;;;11.57;86.27;94561.45;1719895;82;21047;-49
2021/05/24 00:34:15;;;;;;;9.73;8.40;;;;;;;11.59;86.05;94564.55;1723069;82;21092;-49
2021/05/24 00:36:44;;;;;;;14.30;11.08;;;;;;;11.59;86.01;94573.41;1727063;82;21052;-49
2021/05/24 00:39:10;;;;;;;12.70;9.55;;;;;;;11.56;86.03;94586.09;1731053;82;21005;-49
2021/05/24 00:41:40;;;;;;;10.88;8.38;;;;;;;11.53;86.30;94586.98;1721041;82;20975;-49
2021/05/24 00:44:09;;;;;;;7.50;6.70;;;;;;;11.54;86.42;94587.14;1720551;82;21192;-49
2021/05/24 00:46:36;;;;;;;6.22;5.25;;;;;;;11.57;86.48;94593.14;1724314;82;21052;-48
2021/05/24 00:49:04;;;;;;;5.80;5.17;;;;;;;11.58;86.14;94602.19;1725680;82;21072;-49
2021/05/24 00:51:31;;;;;;;5.42;4.80;;;;;;;11.52;86.15;94604.73;1728863;82;21073;-49
2021/05/24 00:53:59;;;;;;;4.80;4.40;;;;;;;11.50;86.02;94611.95;1731825;81;20989;-49
2021/05/24 00:56:26;;;;;;;4.72;4.22;;;;;;;11.44;86.02;94602.13;1714964;82;21037;-49
2021/05/24 00:58:54;;;;;;;4.08;3.40;;;;;;;11.43;86.30;94606.11;1710938;82;21578;-49
2021/05/24 01:01:21;;;;;;;3.95;3.00;;;;;;;11.49;86.34;94615.92;1727895;82;21092;-49
2021/05/24 01:03:48;;;;;;;3.65;3.30;;;;;;;11.52;86.29;94614.38;1722606;82;21104;-49
2021/05/24 01:06:14;;;;;;;5.70;3.20;;;;;;;11.56;86.46;94621.91;1723070;82;21542;-49
2021/05/24 01:08:41;;;;;;;2.67;2.40;;;;;;;11.58;86.30;94623.62;1727208;82;21615;-49
2021/05/24 01:11:08;;;;;;;2.55;2.35;;;;;;;11.61;86.33;94630.20;1729592;82;21021;-50
2021/05/24 01:13:35;;;;;;;3.87;2.50;;;;;;;11.68;85.97;94635.44;1727030;82;21095;-49
2021/05/24 01:16:01;;;;;;;3.92;2.95;;;;;;;11.70;85.38;94636.49;1725496;82;21477;-49
2021/05/24 01:18:28;;;;;;;5.05;3.20;;;;;;;11.71;85.24;94642.78;1730787;82;21029;-50
2021/05/24 01:20:55;;;;;;;3.50;3.20;;;;;;;11.69;84.96;94652.88;1734474;81;21642;-48
2021/05/24 01:23:27;;;;;;;5.72;3.12;;;;;;;11.65;85.18;94655.02;1730894;82;21017;-48
2021/05/24 01:25:51;;;;;;;3.50;3.20;;;;;;;11.67;85.32;94653.94;1728192;82;21110;-48
2021/05/24 01:28:19;;;;;;;3.12;2.83;;;;;;;11.66;85.49;94649.66;1734329;81;21149;-48
2021/05/24 01:30:45;;;;;;;3.92;2.90;;;;;;;11.67;85.93;94663.59;1727195;82;21656;-48
2021/05/24 01:33:12;;;;;;;3.58;2.75;;;;;;;11.71;85.79;94676.61;1722127;82;21595;-49
2021/05/24 01:35:40;;;;;;;4.53;3.00;;;;;;;11.69;85.49;94677.67;1732994;82;21696;-49
2021/05/24 01:38:11;;;;;;;4.22;3.00;;;;;;;11.67;85.46;94686.23;1719619;82;21106;-49
2021/05/24 01:40:41;;;;;;;6.45;5.65;;;;;;;11.65;85.77;94690.84;1715918;82;21056;-50
2021/05/24 01:43:08;;;;;;;6.53;5.17;;;;;;;11.60;85.78;94699.71;1733489;82;21032;-50
2021/05/24 01:45:35;;;;;;;4.92;4.08;;;;;;;11.55;86.09;94703.01;1723239;82;21008;-50
2021/05/24 01:48:05;;;;;;;4.05;2.90;;;;;;;11.54;86.21;94707.61;1726193;82;21103;-51
2021/05/24 01:50:32;;;;;;;3.17;2.87;;;;;;;11.54;86.15;94716.63;1718187;82;21666;-50
2021/05/24 01:52:58;;;;;;;3.98;2.40;;;;;;;11.53;86.08;94711.59;1735114;82;21156;-49
2021/05/24 01:55:25;;;;;;;2.83;2.55;;;;;;;11.48;85.83;94718.45;1736948;82;21020;-50
2021/05/24 01:57:53;;;;;;;4.00;2.27;;;;;;;11.47;85.62;94725.18;1736308;81;21076;-50
2021/05/24 02:00:22;;;;;;;2.77;2.58;;;;;;;11.45;85.41;94722.12;1734108;82;21100;-48
2021/05/24 02:02:49;;;;;;;4.80;3.50;;;;;;;11.45;85.21;94730.98;1726560;82;21588;-49
2021/05/24 02:05:17;;;;;;;4.20;3.80;;;;;;;11.47;85.34;94737.58;1726114;82;21098;-49
2021/05/24 02:07:44;;;;;;;5.70;4.90;;;;;;;11.45;85.44;94742.77;1722836;82;21005;-50
2021/05/24 02:10:15;;;;;;;4.95;4.10;;;;;;;11.43;85.79;94738.93;1729615;82;21004;-49
2021/05/24 02:12:41;;;;;;;4.42;3.40;;;;;;;11.43;85.94;94741.69;1726865;82;21075;-49
2021/05/24 02:15:10;;;;;;;3.17;2.87;;;;;;;11.40;85.74;94744.75;1737944;82;22216;-49
2021/05/24 02:17:37;;;;;;;3.10;2.80;;;;;;;11.37;85.98;94747.63;1732222;82;21058;-50
2021/05/24 02:20:05;;;;;;;2.72;2.50;;;;;;;11.35;85.48;94754.20;1722354;81;20996;-50
2021/05/24 02:22:32;;;;;;;2.30;2.20;;;;;;;11.32;85.60;94764.13;1732071;82;21031;-49
2021/05/24 02:24:59;;;;;;;2.00;1.90;;;;;;;11.36;85.54;94771.64;1729490;82;21036;-50
2021/05/24 02:27:25;;;;;;;2.08;1.77;;;;;;;11.38;85.22;94770.58;1723628;82;21684;-49
2021/05/24 02:29:52;;;;;;;2.10;1.98;;;;;;;11.36;85.18;94778.52;1728828;82;20981;-49
2021/05/24 02:32:19;;;;;;;1.70;1.60;;;;;;;11.32;84.99;94777.90;1726694;82;21061;-49
2021/05/24 02:34:45;;;;;;;2.55;2.37;;;;;;;11.29;84.84;94781.55;1719209;82;21067;-49
2021/05/24 02:37:12;;;;;;;2.08;1.70;;;;;;;11.28;84.63;94797.92;1730555;82;21079;-48
2021/05/24 02:39:40;;;;;;;1.80;1.70;;;;;;;11.26;84.49;94804.50;1734705;82;21093;-49
2021/05/24 02:42:07;;;;;;;1.70;1.60;;;;;;;11.28;84.25;94813.67;1733369;81;21035;-49
2021/05/24 02:44:33;;;;;;;1.85;1.60;;;;;;;11.24;83.62;94822.08;1726806;81;20973;-48
2021/05/24 02:47:00;;;;;;;1.72;1.62;;;;;;;11.23;83.79;94823.30;1735966;82;21523;-50
2021/05/24 02:49:27;;;;;;;3.65;2.15;;;;;;;11.23;83.84;94830.78;1744653;81;21044;-49
2021/05/24 02:51:54;;;;;;;1.67;1.57;;;;;;;11.19;84.23;94843.29;1743612;81;21249;-50
2021/05/24 02:54:21;;;;;;;2.42;2.25;;;;;;;11.23;84.25;94847.30;1715046;82;20977;-50
2021/05/24 02:56:47;;;;;;;4.97;4.42;;;;;;;11.28;84.55;94848.09;1721096;82;21582;-50
2021/05/24 02:59:14;;;;;;;9.95;6.60;;;;;;;11.31;84.73;94857.61;1719028;82;21590;-50
2021/05/24 03:01:42;;;;;;;12.53;7.97;;;;;;;11.31;85.01;94863.13;1724966;82;21552;-49
2021/05/24 03:04:10;;;;;;;7.17;5.92;;;;;;;11.34;85.28;94867.73;1724148;82;21116;-49
2021/05/24 03:06:37;;;;;;;10.30;6.65;;;;;;;11.34;85.25;94871.11;1720585;82;21045;-47
2021/05/24 03:09:06;;;;;;;10.63;7.53;;;;;;;11.35;85.83;94873.39;1728742;82;21599;-49
2021/05/24 03:11:33;;;;;;;10.15;7.58;;;;;;;11.44;86.05;94874.06;1726731;82;21047;-48
2021/05/24 03:13:59;;;;;;;10.68;7.40;;;;;;;11.47;85.87;94868.44;1721579;82;21088;-47
2021/05/24 03:16:26;;;;;;;14.23;11.57;;;;;;;11.46;85.76;94879.89;1727376;82;21116;-49
2021/05/24 03:18:54;;;;;;;12.13;9.50;;;;;;;11.45;85.51;94892.13;1728870;82;21551;-48
2021/05/24 03:21:21;;;;;;;11.85;10.43;;;;;;;11.45;85.28;94897.64;1717799;82;21099;-50
2021/05/24 03:23:49;;;;;;;11.48;10.00;;;;;;;11.46;85.74;94913.73;1725248;82;21635;-49
2021/05/24 03:26:15;;;;;;;9.88;7.80;;;;;;;11.54;86.06;94921.89;1723050;82;21570;-49
2021/05/24 03:28:44;;;;;;;7.72;6.30;;;;;;;11.61;85.73;94935.46;1724009;82;21081;-52
2021/05/24 03:31:11;;;;;;;6.72;5.60;;;;;;;11.61;85.52;94931.33;1717767;82;21078;-50
2021/05/24 03:33:40;;;;;;;5.28;4.78;;;;;;;11.66;85.54;94929.36;1723359;82;21109;-49
2021/05/24 03:36:08;;;;;;;9.50;7.70;;;;;;;11.67;85.31;94930.11;1733186;82;21615;-48
2021/05/24 03:38:35;;;;;;;11.18;9.50;;;;;;;11.69;84.86;94935.34;1735795;81;20976;-48
2021/05/24 03:41:03;;;;;;;15.78;14.20;;;;;;;11.69;84.42;94940.11;1737797;81;21071;-48
2021/05/24 03:43:32;;;;;;;11.15;7.78;;;;;;;11.68;84.04;94947.59;1735702;81;21117;-49
2021/05/24 03:45:58;;;;;;;5.58;4.35;;;;;;;11.69;84.28;94959.40;1731240;82;21029;-48
2021/05/24 03:48:25;;;;;;;4.28;3.27;;;;;;;11.70;84.43;94953.42;1726818;81;21119;-48
2021/05/24 03:50:53;;;;;;;3.20;2.90;;;;;;;11.68;84.33;94958.62;1724280;82;21001;-49
2021/05/24 03:53:20;;;;;;;5.42;3.00;;;;;;;11.62;84.04;94963.17;1734872;81;21155;-48
2021/05/24 03:55:47;;;;;;;2.90;2.60;;;;;;;11.55;83.72;94957.11;1729275;82;21046;-49
2021/05/24 03:58:14;;;;;;;3.75;3.45;;;;;;;11.47;83.94;94959.35;1734409;81;21033;-50
2021/05/24 04:00:40;;;;;;;5.60;4.00;;;;;;;11.47;83.92;94965.45;1735653;82;21004;-49
2021/05/24 04:03:07;;;;;;;3.15;2.40;;;;;;;11.50;83.68;94964.59;1726817;82;21048;-49
2021/05/24 04:05:38;;;;;;;5.15;3.12;;;;;;;11.51;83.74;94959.98;1725598;81;23112;-49
2021/05/24 04:08:06;;;;;;;2.80;2.60;;;;;;;11.53;83.85;94969.20;1737679;82;20989;-49
2021/05/24 04:10:39;;;;;;;2.90;2.60;;;;;;;11.55;84.18;94973.02;1734489;81;21059;-49
2021/05/24 04:13:05;;;;;;;5.55;2.55;;;;;;;11.60;84.66;94973.88;1724484;82;20989;-49
2021/05/24 04:15:32;;;;;;;3.75;3.40;;;;;;;11.70;84.03;94974.72;1734217;81;21613;-48
2021/05/24 04:18:01;;;;;;;3.25;3.05;;;;;;;11.71;83.71;94977.00;1727756;82;21040;-49
2021/05/24 04:20:27;;;;;;;2.98;2.67;;;;;;;11.73;83.50;94981.45;1710169;82;20968;-49
2021/05/24 04:22:54;;;;;;;3.52;2.05;;;;;;;11.75;83.76;94987.91;1724658;82;20961;-49
2021/05/24 04:25:21;;;;;;;2.25;2.05;;;;;;;11.77;83.64;94986.85;1712071;82;21201;-49
2021/05/24 04:27:47;;;;;;;2.00;1.90;;;;;;;11.84;83.69;94994.27;1718484;82;21052;-49
2021/05/24 04:30:16;;;;;;;1.70;1.60;;;;;;;11.87;83.44;94999.50;1724506;82;21750;-49
2021/05/24 04:32:43;;;;;;;1.98;1.70;;;;;;;11.85;83.34;95012.94;1716599;82;21012;-50
2021/05/24 04:35:10;;;;;;;2.55;1.92;;;;;;;11.84;83.62;95021.83;1715944;82;21057;-49
2021/05/24 04:37:37;;;;;;;8.08;7.25;;;;;;;11.85;83.46;95033.02;1722262;82;21015;-49
2021/05/24 04:40:06;;;;;;;3.87;2.20;;;;;;;11.86;83.17;95030.42;1721129;82;21630;-49
2021/05/24 04:42:32;;;;;;;2.12;2.00;;;;;;;11.92;82.19;95034.13;1726506;82;21079;-49
2021/05/24 04:44:59;;;;;;;3.00;2.52;;;;;;;11.93;81.22;95045.31;1716702;82;21087;-49
2021/05/24 04:47:27;;;;;;;5.00;2.65;;;;;;;11.93;80.80;95043.94;1734795;82;21077;-50
2021/05/24 04:49:55;;;;;;;11.90;8.70;;;;;;;11.92;80.62;95053.42;1735590;81;21009;-50
2021/05/24 04:52:22;;;;;;;5.10;3.47;;;;;;;11.94;80.25;95069.53;1727516;82;20986;-49
2021/05/24 04:54:49;;;;;;;5.20;2.33;;;;;;;11.99;80.35;95068.36;1733057;82;21084;-49
2021/05/24 04:57:15;;;;;;;2.15;2.02;;;;;;;12.02;80.72;95079.08;1732549;82;21071;-50
2021/05/24 04:59:42;;;;;;;2.47;2.27;;;;;;;11.97;80.14;95076.31;1724921;82;21107;-49
2021/05/24 05:02:09;;;;;;;3.62;2.45;;;;;;;11.97;79.27;95074.94;1725291;81;21083;-50
2021/05/24 05:04:36;;;;;;;3.25;2.20;;;;;;;11.95;78.60;95077.97;1738751;82;21040;-49
2021/05/24 05:07:02;;;;;;;4.17;2.45;;;;;;;11.93;78.04;95085.30;1728620;82;22122;-51
2021/05/24 05:09:29;;;;;;;3.85;3.22;;;;;;;11.94;77.49;95093.73;1725373;81;21000;-49
2021/05/24 05:11:56;;;;;;;3.22;2.40;;;;;;;11.92;77.59;95092.65;1737113;81;21131;-50
2021/05/24 05:14:24;;;;;;;2.33;1.85;;;;;;;11.97;76.58;95094.23;1728840;81;21030;-49
2021/05/24 05:16:51;;;;;;;6.40;3.92;;;;;;;12.01;75.85;95090.73;1746683;81;21013;-50
2021/05/24 05:19:18;;;;;;;8.45;3.47;;;;;;;12.05;75.71;95097.52;1722802;82;22286;-49
2021/05/24 05:21:47;;;;;;;9.00;5.20;;;;;;;12.05;75.52;95098.27;1722455;82;21575;-49
2021/05/24 05:24:14;;;;;;;18.98;12.73;;;;;;;12.06;75.38;95097.05;1733260;80;20997;-49
2021/05/24 05:26:41;;;;;;;32.45;29.25;;;;;;;12.13;76.70;95110.61;1722254;81;21539;-54
2021/05/24 05:29:09;;;;;;;8.63;5.90;;;;;;;12.21;76.88;95110.50;1744163;80;21709;-48
2021/05/24 05:31:37;;;;;;;6.75;4.85;;;;;;;12.32;76.21;95111.50;1726856;80;21079;-50
2021/05/24 05:34:04;;;;;;;5.72;3.87;;;;;;;12.32;76.06;95115.04;1738060;80;21228;-48
2021/05/24 05:36:32;;;;;;;9.63;6.67;;;;;;;12.37;75.80;95121.36;1737572;80;21007;-49
2021/05/24 05:38:59;;;;;;;5.30;3.35;;;;;;;12.43;75.60;95126.45;1713588;81;22519;-52
2021/05/24 05:41:26;;;;;;;8.03;6.03;;;;;;;12.49;75.27;95130.16;1767227;80;21057;-50
2021/05/24 05:43:52;;;;;;;2.60;2.40;;;;;;;12.53;74.97;95140.48;1739799;80;21120;-48
2021/05/24 05:46:19;;;;;;;6.90;4.40;;;;;;;12.53;73.69;95146.00;1726276;80;21074;-53
2021/05/24 05:48:46;;;;;;;5.22;2.10;;;;;;;12.53;73.66;95149.36;1735772;80;21134;-50
2021/05/24 05:51:12;;;;;;;3.80;3.40;;;;;;;12.55;73.36;95155.35;1752901;80;21092;-51
2021/05/24 05:53:39;;;;;;;10.23;9.33;;;;;;;12.56;72.76;95165.17;1740435;80;21095;-55
2021/05/24 05:56:06;;;;;;;13.60;12.20;;;;;;;12.57;73.25;95164.58;1739184;80;21225;-52
2021/05/24 05:58:32;;;;;;;5.80;5.17;;;;;;;12.58;73.85;95161.37;1744253;79;21064;-54
2021/05/24 06:01:03;;;;;;;4.33;4.00;;;;;;;12.65;74.42;95159.73;1735728;80;21046;-52
2021/05/24 06:03:27;;;;;;;3.35;3.05;;;;;;;12.70;73.96;95155.00;1755063;80;21068;-53
2021/05/24 06:05:55;;;;;;;4.40;3.60;;;;;;;12.79;73.39;95159.81;1735803;80;21894;-57
2021/05/24 06:08:22;;;;;;;4.53;4.10;;;;;;;12.82;72.85;95158.30;1735675;80;21598;-50
2021/05/24 06:10:50;;;;;;;4.35;3.58;;;;;;;12.91;73.14;95157.59;1748529;80;21108;-51
2021/05/24 06:13:17;;;;;;;4.15;3.17;;;;;;;12.97;73.31;95163.48;1756542;80;21099;-50
2021/05/24 06:15:43;;;;;;;2.65;2.45;;;;;;;12.98;73.46;95164.24;1755337;80;21106;-50
2021/05/24 06:18:10;;;;;;;5.30;3.08;;;;;;;13.00;73.04;95165.34;1765832;79;21092;-50
2021/05/24 06:20:37;;;;;;;3.80;3.50;;;;;;;13.02;72.79;95173.16;1760410;80;21109;-51
2021/05/24 06:23:04;;;;;;;2.65;2.45;;;;;;;13.07;72.80;95176.73;1751358;80;21712;-49
2021/05/24 06:25:32;;;;;;;4.35;3.10;;;;;;;13.16;72.11;95174.01;1761681;80;21637;-51
2021/05/24 06:27:59;;;;;;;6.95;3.33;;;;;;;13.15;71.22;95173.85;1749103;80;21107;-50
2021/05/24 06:30:26;;;;;;;5.87;5.10;;;;;;;13.15;71.27;95179.38;1752389;79;21079;-52
2021/05/24 06:32:53;;;;;;;2.60;2.40;;;;;;;13.19;70.97;95180.00;1751003;80;21115;-54
2021/05/24 06:35:21;;;;;;;2.40;2.20;;;;;;;13.20;69.22;95180.16;1756066;80;21128;-58
2021/05/24 06:37:48;;;;;;;3.17;2.67;;;;;;;13.20;69.59;95189.83;1755893;79;21016;-55
2021/05/24 06:40:17;;;;;;;5.70;2.60;;;;;;;13.22;69.48;95183.23;1730095;80;21119;-52
2021/05/24 06:42:45;;;;;;;6.40;2.60;;;;;;;13.35;68.87;95194.98;1734411;80;21087;-51
2021/05/24 06:45:12;;;;;;;6.87;6.05;;;;;;;13.44;68.60;95186.73;1761438;80;21109;-52
2021/05/24 06:47:39;;;;;;;3.90;3.42;;;;;;;13.54;68.83;95195.21;1744028;80;21582;-55
2021/05/24 06:50:06;;;;;;;2.90;2.10;;;;;;;13.66;67.77;95199.87;1721509;81;21028;-52
2021/05/24 06:52:33;;;;;;;4.40;2.30;;;;;;;13.77;66.41;95198.81;1723478;81;21111;-52
2021/05/24 06:55:01;;;;;;;9.43;2.52;;;;;;;13.80;65.68;95197.93;1713406;82;21113;-55
2021/05/24 06:57:28;;;;;;;3.05;2.33;;;;;;;13.90;66.06;95206.39;1726554;80;21107;-55
2021/05/24 06:59:55;;;;;;;3.33;2.35;;;;;;;13.97;65.91;95209.64;1707952;82;21281;-53
2021/05/24 07:02:21;;;;;;;4.22;2.00;;;;;;;14.05;65.66;95212.89;1753881;80;21805;-54
2021/05/24 07:04:48;;;;;;;412.77;83.97;;;;;;;14.18;64.36;95211.56;1759345;80;21019;-53
2021/05/24 07:07:15;;;;;;;21.50;8.03;;;;;;;14.31;63.99;95210.03;1743327;80;21654;-62
2021/05/24 07:09:43;;;;;;;11.60;2.92;;;;;;;14.33;62.60;95211.75;1737044;80;21381;-52
2021/05/24 07:12:10;;;;;;;7.78;2.30;;;;;;;14.27;62.73;95214.95;1748835;80;21134;-59
2021/05/24 07:14:37;;;;;;;3.40;2.65;;;;;;;14.24;63.11;95220.03;1743477;80;21032;-54
2021/05/24 07:17:06;;;;;;;5.33;2.67;;;;;;;14.22;63.57;95219.72;1752479;80;21112;-54
2021/05/24 07:19:35;;;;;;;3.85;2.87;;;;;;;14.25;63.16;95224.34;1721291;80;21655;-55
2021/05/24 07:22:03;;;;;;;4.00;2.10;;;;;;;14.36;62.50;95226.80;1723787;80;21118;-53
2021/05/24 07:24:29;;;;;;;10.85;3.70;;;;;;;14.51;63.05;95220.83;1725863;80;21576;-53
2021/05/24 07:26:56;;;;;;;13.22;3.33;;;;;;;14.69;63.25;95223.00;1750305;80;21098;-56
2021/05/24 07:29:23;;;;;;;17.82;5.17;;;;;;;14.86;62.74;95221.46;1755028;80;21548;-59
2021/05/24 07:31:52;;;;;;;16.15;4.80;;;;;;;14.96;60.63;95220.84;1727383;81;21257;-58
2021/05/24 07:34:21;;;;;;;12.75;4.40;;;;;;;14.97;59.75;95216.20;1694952;81;21356;-59
2021/05/24 07:36:48;;;;;;;1.95;1.62;;;;;;;14.95;60.05;95224.20;1742002;80;21040;-53
2021/05/24 07:39:15;;;;;;;4.58;2.47;;;;;;;14.97;59.49;95223.13;1716045;80;21126;-54
2021/05/24 07:41:41;;;;;;;3.87;2.52;;;;;;;15.03;59.25;95223.28;1741082;80;21162;-55
2021/05/24 07:44:08;;;;;;;2.70;2.42;;;;;;;15.11;59.80;95232.20;1736960;80;21630;-57
2021/05/24 07:46:37;;;;;;;5.05;1.80;;;;;;;15.21;59.35;95237.86;1738633;80;21124;-58
2021/05/24 07:49:05;;;;;;;2.90;2.35;;;;;;;15.26;58.82;95233.70;1736092;80;21013;-55
2021/05/24 07:51:31;;;;;;;255.45;55.67;;;;;;;15.28;58.86;95225.08;1742065;80;21159;-56
2021/05/24 07:53:58;;;;;;;114.92;34.25;;;;;;;15.31;59.98;95226.16;1743592;80;21040;-56
2021/05/24 07:56:25;;;;;;;21.75;6.60;;;;;;;15.41;60.51;95229.86;1738452;80;21159;-58
2021/05/24 07:58:53;;;;;;;67.20;13.58;;;;;;;15.53;58.64;95227.50;1729865;80;21153;-54
2021/05/24 08:01:20;;;;;;;341.38;79.92;;;;;;;15.65;58.46;95242.40;1734855;80;21064;-55
2021/05/24 08:03:48;;;;;;;105.50;26.20;;;;;;;15.80;59.69;95237.13;1737137;79;21055;-57
2021/05/24 08:06:15;;;;;;;56.28;15.63;;;;;;;15.88;59.16;95238.31;1733671;80;21110;-56
2021/05/24 08:08:42;;;;;;;311.62;71.90;;;;;;;15.91;58.19;95252.63;1720668;80;21639;-56
2021/05/24 08:11:12;;;;;;;65.62;13.62;;;;;;;15.91;57.49;95251.24;1741331;80;21432;-55
2021/05/24 08:13:39;;;;;;;56.05;15.43;;;;;;;15.92;56.58;95244.45;1738532;80;21138;-54
2021/05/24 08:16:06;;;;;;;3.75;2.15;;;;;;;15.94;57.61;95238.45;1743276;80;21118;-55
2021/05/24 08:18:34;;;;;;;5.53;1.90;;;;;;;15.85;56.16;95228.16;1726621;81;21133;-55
2021/05/24 08:21:04;;;;;;;2.40;1.55;;;;;;;15.75;56.32;95232.19;1736363;80;21111;-53
2021/05/24 08:23:31;;;;;;;4.58;1.98;;;;;;;15.70;56.22;95243.18;1742214;80;21372;-53
2021/05/24 08:26:00;;;;;;;7.97;2.85;;;;;;;15.65;55.69;95243.19;1707684;82;21056;-54
2021/05/24 08:28:27;;;;;;;10.38;1.98;;;;;;;15.66;56.05;95253.05;1679683;83;21179;-56
2021/05/24 08:30:54;;;;;;;3.92;1.70;;;;;;;15.73;55.96;95254.72;1739773;80;21069;-56
2021/05/24 08:33:22;;;;;;;2.55;1.60;;;;;;;15.83;55.82;95260.37;1726680;80;21069;-59
2021/05/24 08:35:49;;;;;;;5.45;2.08;;;;;;;15.91;55.89;95263.73;1746394;80;21545;-53
2021/05/24 08:38:16;;;;;;;13.03;2.70;;;;;;;15.98;55.23;95262.63;1702428;81;21103;-56
2021/05/24 08:40:44;;;;;;;8.28;2.25;;;;;;;16.03;55.16;95264.16;1744598;80;21063;-58
2021/05/24 08:43:14;;;;;;;1.90;1.65;;;;;;;16.05;54.43;95260.89;1731838;80;21016;-53
2021/05/24 08:45:42;;;;;;;3.47;2.10;;;;;;;16.01;53.87;95261.08;1758935;80;21098;-53
2021/05/24 08:48:11;;;;;;;5.15;2.40;;;;;;;15.99;53.61;95249.68;1740799;80;21232;-54
2021/05/24 08:50:39;;;;;;;1.50;1.40;;;;;;;16.06;54.29;95245.16;1749215;80;21114;-56
2021/05/24 08:53:09;;;;;;;4.25;2.10;;;;;;;16.30;53.65;95248.73;1734004;80;21056;-53
2021/05/24 08:55:37;;;;;;;16.20;2.83;;;;;;;16.63;53.03;95229.42;1732095;81;21095;-55
2021/05/24 08:58:09;;;;;;;6.55;2.35;;;;;;;16.98;53.17;95235.16;1730558;80;21212;-54
2021/05/24 09:00:36;;;;;;;2.55;1.37;;;;;;;17.32;51.97;95238.70;1741916;80;21106;-50
2021/05/24 09:03:04;;;;;;;3.83;1.32;;;;;;;17.57;49.88;95243.11;1752889;80;21086;-58
2021/05/24 09:05:32;;;;;;;7.25;1.30;;;;;;;17.74;51.19;95234.42;1736244;80;21119;-53
2021/05/24 09:08:04;;;;;;;3.72;1.25;;;;;;;18.01;50.21;95234.72;1763530;79;21108;-58
2021/05/24 09:10:33;;;;;;;4.08;1.30;;;;;;;18.23;49.00;95242.14;1758764;79;21111;-53
2021/05/24 09:13:01;;;;;;;6.40;2.10;;;;;;;18.29;48.52;95238.83;1745776;80;21082;-53
2021/05/24 09:15:28;;;;;;;3.90;1.70;;;;;;;18.37;49.45;95240.59;1684450;80;21084;-55
2021/05/24 09:18:03;;;;;;;10.45;2.22;;;;;;;18.53;49.71;95245.02;1725341;80;21019;-52
2021/05/24 09:20:34;;;;;;;11.08;2.67;;;;;;;18.64;48.80;95241.61;1744091;80;21086;-52
2021/05/24 09:23:19;;;;;;;1.62;1.25;;;;;;;18.62;47.91;95239.30;1742173;80;21158;-57
2021/05/24 09:26:03;;;;;;;9.98;1.77;;;;;;;18.58;47.43;95239.36;1742130;80;21107;-51
2021/05/24 09:28:35;;;;;;;4.00;1.95;;;;;;;18.57;47.72;95227.45;1731562;80;21244;-49
2021/05/24 09:31:09;;;;;;;2.85;1.75;;;;;;;18.63;47.00;95233.11;1735151;80;21119;-52
2021/05/24 09:33:40;;;;;;;3.02;1.22;;;;;;;18.67;46.70;95226.05;1753387;79;21261;-53
2021/05/24 09:36:06;;;;;;;3.75;2.83;;;;;;;18.75;46.65;95223.00;1773438;79;21016;-54
2021/05/24 09:38:44;;;;;;;3.77;1.67;;;;;;;18.71;47.19;95215.48;1754064;80;21759;-51
2021/05/24 09:41:13;;;;;;;2.40;1.20;;;;;;;18.67;47.68;95214.91;1737216;80;21127;-52
2021/05/24 09:43:44;;;;;;;6.55;1.65;;;;;;;18.73;47.43;95224.12;1733689;81;21179;-52
2021/05/24 09:46:24;;;;;;;4.58;1.70;;;;;;;18.82;47.60;95223.21;1750016;80;21505;-52
2021/05/24 09:48:56;;;;;;;1.90;1.20;;;;;;;18.87;46.29;95213.49;1734201;80;21045;-54
2021/05/24 09:51:25;;;;;;;1.22;1.10;;;;;;;18.83;46.37;95200.40;1757411;79;21194;-53
2021/05/24 09:54:04;;;;;;;2.22;1.12;;;;;;;18.89;45.69;95196.28;1755212;80;20941;-52
2021/05/24 09:56:35;;;;;;;5.15;1.65;;;;;;;18.96;45.98;95189.66;1739943;80;21064;-51
2021/05/24 09:59:11;;;;;;;1.20;1.10;;;;;;;19.02;45.40;95191.87;1742592;80;21040;-55
2021/05/24 10:01:42;;;;;;;5.67;2.15;;;;;;;19.01;45.93;95189.59;1748902;80;21095;-54
2021/05/24 10:04:19;;;;;;;3.20;1.50;;;;;;;18.98;46.25;95198.30;1742240;80;21162;-54
2021/05/24 10:06:47;;;;;;;2.37;1.12;;;;;;;18.97;47.28;95202.34;1736758;80;21087;-51
2021/05/24 10:09:16;;;;;;;2.70;1.40;;;;;;;19.05;46.73;95199.89;1740497;80;21160;-52
2021/05/24 10:11:46;;;;;;;1.90;1.22;;;;;;;19.21;47.29;95212.64;1722179;80;21428;-52
2021/05/24 10:14:15;;;;;;;4.25;1.17;;;;;;;19.44;46.10;95219.22;1745496;80;21096;-55
2021/05/24 10:16:45;;;;;;;3.08;1.00;;;;;;;19.53;44.68;95233.77;1723713;80;21231;-50
2021/05/24 10:19:13;;;;;;;1.52;1.32;;;;;;;19.50;44.41;95245.92;1731367;80;21046;-52
2021/05/24 10:21:40;;;;;;;3.55;1.10;;;;;;;19.46;44.30;95237.02;1747057;80;21048;-50
2021/05/24 10:24:08;;;;;;;1.07;0.90;;;;;;;19.53;44.42;95236.56;1749662;80;21044;-55
2021/05/24 10:26:37;;;;;;;1.15;1.05;;;;;;;19.60;44.63;95233.31;1755039;80;21087;-53
2021/05/24 10:29:04;;;;;;;4.20;1.20;;;;;;;20.11;44.29;95214.36;1761063;79;21147;-53
2021/05/24 10:31:32;;;;;;;4.55;1.50;;;;;;;20.48;43.92;95213.06;1733545;80;21127;-50
2021/05/24 10:34:20;;;;;;;4.87;1.60;;;;;;;20.73;43.70;95219.18;1732714;80;21186;-51
2021/05/24 10:37:22;;;;;;;2.40;1.35;;;;;;;20.76;42.25;95211.18;1744714;80;21139;-52
2021/05/24 10:39:55;;;;;;;4.37;1.50;;;;;;;20.90;42.33;95217.25;1748456;80;21707;-50
2021/05/24 10:42:42;;;;;;;3.12;1.75;;;;;;;21.09;41.98;95221.14;1708671;81;21306;-55
2021/05/24 10:45:21;;;;;;;1.42;1.10;;;;;;;21.32;41.00;95219.92;1717315;82;21166;-52
2021/05/24 10:48:01;;;;;;;1.65;1.17;;;;;;;21.46;41.02;95214.74;1718945;81;21071;-52
2021/05/24 10:50:30;;;;;;;6.25;1.20;;;;;;;21.71;40.94;95213.78;1746880;81;21104;-51
2021/05/24 10:53:03;;;;;;;5.72;1.35;;;;;;;22.09;40.20;95218.75;1746853;80;21675;-50
2021/05/24 10:55:36;;;;;;;5.05;1.47;;;;;;;22.38;38.94;95214.05;1740253;80;21617;-53
2021/05/24 10:58:13;;;;;;;4.53;1.60;;;;;;;22.66;39.96;95210.52;1741593;80;21103;-53
2021/05/24 11:01:03;;;;;;;6.15;1.30;;;;;;;23.15;38.36;95203.98;1740140;80;21091;-53
2021/05/24 11:03:32;;;;;;;3.77;1.37;;;;;;;23.62;37.34;95208.33;1754080;80;21044;-49
2021/05/24 11:06:18;;;;;;;3.87;0.90;;;;;;;23.90;37.16;95196.25;1668084;84;21627;-50
2021/05/24 11:08:53;;;;;;;2.40;0.98;;;;;;;24.13;37.85;95191.97;1707339;82;21116;-50
2021/05/24 11:11:26;;;;;;;55.25;4.53;;;;;;;24.23;36.66;95211.45;1670824;83;21139;-49
2021/05/24 11:14:04;;;;;;;4.05;1.02;;;;;;;24.26;35.38;95204.14;1669624;83;20998;-50
2021/05/24 11:16:33;;;;;;;2.95;1.05;;;;;;;24.39;36.52;95204.25;1695709;83;21029;-55
2021/05/24 11:19:16;;;;;;;1.85;1.10;;;;;;;24.77;35.68;95203.11;1691013;83;21032;-53
2021/05/24 11:21:52;;;;;;;2.10;0.80;;;;;;;24.97;35.56;95197.64;1699113;83;21064;-55
2021/05/24 11:24:38;;;;;;;1.67;0.70;;;;;;;25.26;34.77;95198.19;1739202;80;21066;-55
2021/05/24 11:27:14;;;;;;;0.90;0.80;;;;;;;25.51;33.84;95186.31;1754779;80;21145;-52
2021/05/24 11:29:47;;;;;;;1.17;0.70;;;;;;;25.74;33.85;95189.58;1747872;80;21095;-53
2021/05/24 11:32:28;;;;;;;2.05;0.47;;;;;;;25.93;34.80;95199.56;1731254;80;21040;-59
2021/05/24 11:34:55;;;;;;;6.95;1.82;;;;;;;25.98;33.50;95183.94;1733767;80;21103;-53
2021/05/24 11:37:43;;;;;;;1.80;0.93;;;;;;;25.97;34.07;95172.55;1736637;80;21124;-54
2021/05/24 11:40:16;;;;;;;20.80;1.85;;;;;;;25.93;31.94;95174.19;1738892;80;21024;-54